Wetterdaten: Mrz 2009
Datum Temp Feuchte Luftdruck Regen Wind Richtung Sonnenschein UV Solar Windben
01.03.2009 5,0 C 96 % 1009,5 hPa 0,2 l/m 9,3 km/h S-SO 0,00 h 0,6 UV-I 75 W/m 16,9 km/h
02.03.2009 4,7 C 97 % 1013,9 hPa 2,2 l/m 1,8 km/h S 0,00 h 0,0 UV-I 24 W/m 6,4 km/h
03.03.2009 3,9 C 82 % 1010,7 hPa 0,0 l/m 7,0 km/h S 3,42 h 1,1 UV-I 186 W/m 12,5 km/h
04.03.2009 5,5 C 76 % 991,3 hPa 0,2 l/m 15,3 km/h S-SO 2,08 h 0,9 UV-I 164 W/m 25,3 km/h
05.03.2009 3,3 C 95 % 988,1 hPa 1,0 l/m 3,8 km/h N-NW 0,33 h 0,6 UV-I 88 W/m 7,2 km/h
06.03.2009 2,8 C 98 % 997,6 hPa 8,8 l/m 6,7 km/h N-NW 0,00 h 0,0 UV-I 26 W/m 16,1 km/h
07.03.2009 1,9 C 91 % 1011,3 hPa 1,8 l/m 7,9 km/h NW 3,17 h 1,1 UV-I 177 W/m 16,1 km/h
08.03.2009 4,3 C 94 % 1002,8 hPa 3,8 l/m 7,8 km/h S 0,08 h 0,6 UV-I 55 W/m 13,3 km/h
09.03.2009 2,8 C 91 % 1008,3 hPa 4,8 l/m 14,3 km/h S-SW 0,83 h 0,7 UV-I 115 W/m 34,6 km/h
10.03.2009 3,0 C 96 % 1007,0 hPa 14,2 l/m 9,3 km/h S 0,00 h 0,6 UV-I 64 W/m 18,1 km/h
11.03.2009 3,6 C 90 % 1020,9 hPa 2,8 l/m 3,9 km/h NW 0,58 h 0,9 UV-I 114 W/m 10,5 km/h
12.03.2009 5,5 C 97 % 1017,4 hPa 11,2 l/m 12,1 km/h S 0,00 h 0,5 UV-I 35 W/m 28,1 km/h
13.03.2009 4,2 C 92 % 1020,5 hPa 0,0 l/m 5,5 km/h NW 3,23 h 1,1 UV-I 187 W/m 10,9 km/h
14.03.2009 7,3 C 90 % 1016,3 hPa 2,8 l/m 9,3 km/h S 3,98 h 1,2 UV-I 220 W/m 20,9 km/h
15.03.2009 5,5 C 97 % 1025,4 hPa 7,8 l/m 8,3 km/h NW 0,00 h 0,6 UV-I 56 W/m 18,1 km/h
16.03.2009 4,9 C 95 % 1032,9 hPa 0,2 l/m 0,5 km/h NW 0,00 h 0,6 UV-I 61 W/m 1,6 km/h
17.03.2009 5,4 C 78 % 1033,7 hPa 0,0 l/m 8,1 km/h N-NW 3,25 h 1,3 UV-I 192 W/m 18,1 km/h
18.03.2009 2,7 C 86 % 1030,9 hPa 0,0 l/m 2,3 km/h NW 7,17 h 1,4 UV-I 267 W/m 4,4 km/h
19.03.2009 1,2 C 84 % 1028,5 hPa 0,0 l/m 3,2 km/h N-NO 4,58 h 1,3 UV-I 256 W/m 7,7 km/h
20.03.2009 0,4 C 73 % 1032,1 hPa 0,0 l/m 1,7 km/h N-NO 8,58 h 1,5 UV-I 341 W/m 4,0 km/h
21.03.2009 3,9 C 64 % 1027,2 hPa 0,0 l/m 5,9 km/h W 8,92 h 1,7 UV-I 347 W/m 13,3 km/h
22.03.2009 5,1 C 81 % 1022,2 hPa 0,4 l/m 10,7 km/h N-NW 0,15 h 1,2 UV-I 107 W/m 27,8 km/h
23.03.2009 3,8 C 92 % 1004,1 hPa 9,0 l/m 14,3 km/h W 0,00 h 0,7 UV-I 49 W/m 32,6 km/h
24.03.2009 0,3 C 84 % 1008,0 hPa 2,8 l/m 8,0 km/h N-NW 2,25 h 1,1 UV-I 178 W/m 17,3 km/h
25.03.2009 1,4 C 96 % 999,3 hPa 9,6 l/m 6,5 km/h S 0,00 h 0,7 UV-I 85 W/m 14,1 km/h
26.03.2009 4,9 C 93 % 1001,3 hPa 7,2 l/m 17,7 km/h S 0,00 h 0,6 UV-I 65 W/m 30,5 km/h
27.03.2009 4,8 C 87 % 998,5 hPa 7,4 l/m 6,7 km/h S 2,58 h 1,2 UV-I 201 W/m 12,9 km/h
28.03.2009 4,8 C 88 % 997,8 hPa 1,4 l/m 14,4 km/h S 0,42 h 0,8 UV-I 94 W/m 25,0 km/h
29.03.2009 3,3 C 93 % 1010,4 hPa 2,6 l/m 1,2 km/h NW 1,17 h 1,1 UV-I 154 W/m 5,2 km/h
30.03.2009 3,0 C 83 % 1022,1 hPa 0,0 l/m 0,5 km/h S 8,00 h 1,7 UV-I 365 W/m 2,8 km/h
31.03.2009 5,2 C 72 % 1023,8 hPa 0,0 l/m 1,0 km/h S 9,92 h 2,0 UV-I 390 W/m 2,8 km/h
Min-Datum 20.03.09 30.03.09 05.03.09 22 Tage 01.03.09 - - - - 01.03.09
Min-Zeit 06:30 16:40 07:20 - 00:06 - - - - 00:25
Minimum -4,5 C 41 % 986,0 hPa - 0,0 km/h - - - - 0,0 km/h
Max-Datum 31.03.09 01.03.09 17.03.09 10.03.09 23.03.09 - 31.03.09 31.03.09 29.03.09 23.03.09
Max-Zeit 16:20 07:55 23:05 14:55 17:30 - 18:25 13:30 13:20 15:35
Maximum 13,9 C 100 % 1035,3 hPa 14,2 l/m 28,9 km/h
W
- 9,83 h 3,3 UV-I 1016 W/m 64,4 km/h
W
Durchschnitt 3,8 C 88 % 1013,4 hPa #102,2 l/m 7,3 km/h S #74:42 h 1,0 UV-I 153 W/m 15,3 km/h

Durchschnitt Minimum Temp.0,4 C
Durchschnitt Maximum Temp.7,6 C